• Join FlightAware (Why Join?)
  • Login
  • US Flag 
01:09AM EDT


 

Airport Tracker/Info


-or-


 

Live Flight TrackerFlight Track Log ✈ SWA1199 ✈ 31-Jul-2013 ✈ KSAT - KBNA

Flight Track Log - Related Links

Times and Time Zones

All times are in EDT time to prevent confusion due to time zone crossing. See the SWA1199 flight status page for this flight to view local times or setup timezone preferences in your user account.

Time Position Orientation Groundspeed Altitude Reporting Facility
EDT Latitude Longitude Course Direction KTS MPH feet Rate Location/Type
07:26AM 29.5247 -98.4636 110° East 154 177 1,700  Level Houston Center
07:28AM 29.4997 -98.3836 110° East 227 261 5,600 2,880 Climbing Houston Center
07:29AM 29.5522 -98.3389 37° Northeast 237 273 8,900 2,580 Climbing Houston Center
07:30AM 29.5725 -98.2558 74° East 277 319 11,000 2,760 Climbing Houston Center
07:31AM 29.5939 -98.1461 77° East 326 375 14,600 2,820 Climbing Houston Center
07:32AM 29.6131 -98.0419 78° East 334 384 16,700 2,040 Climbing Houston Center
07:33AM 29.6347 -97.9253 78° East 371 427 18,800 2,100 Climbing Houston Center
07:34AM 29.6539 -97.8175 78° East 374 430 21,000 1,980 Climbing Houston Center
07:35AM 29.6544 -97.6919 90° East 388 447 22,900 1,920 Climbing Houston Center
07:36AM 29.6564 -97.5647 89° East 396 456 25,000 1,800 Climbing Houston Center
07:37AM 29.6531 -97.4369 92° East 401 461 26,600 1,560 Climbing Houston Center
07:38AM 29.6411 -97.3036 96° East 415 478 28,200 1,500 Climbing Houston Center
07:39AM 29.6311 -97.1694 95° East 419 482 29,700 1,260 Climbing Houston Center
07:40AM 29.6189 -97.0306 96° East 431 496 30,800 1,200 Climbing Houston Center
07:41AM 29.6075 -96.8872 95° East 443 510 32,200 1,620 Climbing Houston Center
07:42AM 29.5967 -96.7464 95° East 439 505 34,100 1,620 Climbing Houston Center
07:43AM 29.5844 -96.6117 96° East 424 488 35,500 1,200 Climbing Houston Center
07:44AM 29.5703 -96.4464 96° East 430 495 36,600 720 Climbing Houston Center
07:45AM 29.5586 -96.3125 96° East 426 490 37,000 180 Climbing Houston Center
07:46AM 29.5478 -96.1783 95° East 422 486 37,000  Level Houston Center
07:47AM 29.5992 -96.0608 63° Northeast 415 478 37,000  Level Houston Center
07:48AM 29.6550 -95.9486 60° Northeast 408 470 37,000  Level Houston Center
07:49AM 29.7128 -95.8350 60° Northeast 409 471 37,000  Level Houston Center
07:50AM 29.7708 -95.7194 60° Northeast 414 476 37,000  Level Houston Center
07:51AM 29.8292 -95.6042 60° Northeast 416 479 37,000  Level Houston Center
07:52AM 29.8875 -95.4886 60° Northeast 417 480 37,000  Level Houston Center
07:53AM 29.9461 -95.3733 60° Northeast 417 480 37,000  Level Houston Center
07:54AM 30.0358 -95.2883 39° Northeast 424 488 37,000  Level Houston Center
07:55AM 30.1317 -95.2156 33° Northeast 415 478 37,000  Level Houston Center
07:56AM 30.2294 -95.1411 33° Northeast 418 481 37,000  Level Houston Center
07:57AM 30.3450 -95.0522 34° Northeast 416 479 37,000  Level Houston Center
07:58AM 30.4456 -94.9742 34° Northeast 416 479 37,000  Level Houston Center
07:59AM 30.5417 -94.9011 33° Northeast 413 475 37,000  Level Houston Center
08:00AM 30.6383 -94.8261 34° Northeast 416 479 37,000  Level Houston Center
08:01AM 30.7350 -94.7522 33° Northeast 417 480 37,000  Level Houston Center
08:02AM 30.8300 -94.6758 35° Northeast 418 481 37,000  Level Houston Center
08:03AM 30.9267 -94.6031 33° Northeast 423 487 37,000  Level Houston Center
08:04AM 31.0206 -94.5275 35° Northeast 427 491 37,000  Level Houston Center
08:05AM 31.1353 -94.4394 33° Northeast 417 480 37,000  Level Houston Center
08:06AM 31.2325 -94.3672 32° Northeast 415 478 37,000  Level Houston Center
08:07AM 31.3272 -94.2917 34° Northeast 414 476 37,000  Level Houston Center
08:09AM 31.4242 -94.2178 33° Northeast 416 479 37,000  Level Houston Center
08:10AM 31.5206 -94.1425 34° Northeast 417 480 37,000  Level Houston Center
08:11AM 31.6167 -94.0669 34° Northeast 416 479 37,000  Level Houston Center
08:12AM 31.7119 -93.9914 34° Northeast 414 476 37,000  Level Houston Center
08:13AM 31.8061 -93.9175 34° Northeast 414 476 37,000  Level Houston Center
08:14AM 31.9214 -93.8261 34° Northeast 415 478 37,000  Level Houston Center
08:15AM 32.0175 -93.7494 34° Northeast 416 479 37,000  Level Houston Center
08:16AM 32.1147 -93.6717 34° Northeast 416 479 37,000  Level Houston Center
08:17AM 32.2097 -93.5956 34° Northeast 416 479 37,000  Level Houston Center
08:18AM 32.3339 -93.4869 36° Northeast 416 479 37,000  Level Fort Worth Center
08:19AM 32.4317 -93.4114 33° Northeast 416 479 37,000  Level Fort Worth Center
08:20AM 32.5272 -93.3333 35° Northeast 416 479 37,000  Level Fort Worth Center
08:21AM 32.6247 -93.2547 34° Northeast 416 479 37,000  Level Fort Worth Center
08:22AM 32.7206 -93.1814 33° Northeast 410 472 37,000  Level Fort Worth Center
08:23AM 32.8181 -93.1025 34° Northeast 410 472 37,000  Level Fort Worth Center
08:24AM 32.9133 -93.0236 35° Northeast 410 472 37,000  Level Fort Worth Center
08:25AM 33.0086 -92.9447 35° Northeast 410 472 37,000  Level Fort Worth Center
08:26AM 33.1061 -92.8656 34° Northeast 410 472 37,000  Level Fort Worth Center
08:28AM 33.3039 -92.6764 39° Northeast 436 502 37,000  Level Memphis Center
08:29AM 33.3811 -92.5614 51° Northeast 428 493 37,000  Level Memphis Center
08:30AM 33.4519 -92.4511 52° Northeast 428 493 37,000  Level Memphis Center
08:31AM 33.5289 -92.3383 51° Northeast 428 493 37,000  Level Memphis Center
08:32AM 33.5994 -92.2253 53° Northeast 428 493 37,000  Level Memphis Center
08:33AM 33.6742 -92.1119 52° Northeast 428 493 37,000  Level Memphis Center
08:34AM 33.7508 -91.9961 51° Northeast 428 493 37,000  Level Memphis Center
08:35AM 33.8253 -91.8825 52° Northeast 428 493 37,000  Level Memphis Center
08:36AM 33.8978 -91.7686 52° Northeast 428 493 37,000  Level Memphis Center
08:37AM 33.9719 -91.6497 53° Northeast 422 486 37,000  Level Memphis Center
08:38AM 34.0461 -91.5303 53° Northeast 422 486 37,000  Level Memphis Center
08:39AM 34.1181 -91.4186 52° Northeast 435 501 37,000  Level Memphis Center
08:40AM 34.1839 -91.2911 58° Northeast 435 501 37,000  Level Memphis Center
08:41AM 34.2411 -91.1611 62° Northeast 429 494 37,000  Level Memphis Center
08:42AM 34.3003 -91.0283 62° Northeast 443 510 37,000  Level Memphis Center
08:43AM 34.3636 -90.8931 60° Northeast 453 521 37,000  Level Memphis Center
08:44AM 34.4225 -90.7600 62° Northeast 453 521 37,000  Level Memphis Center
08:45AM 34.4750 -90.6417 62° Northeast 453 521 37,000  Level Memphis Center
08:46AM 34.5378 -90.5083 60° Northeast 453 521 37,000  Level Memphis Center
08:47AM 34.5881 -90.3722 66° East 444 511 37,000  Level Memphis Center
08:48AM 34.6275 -90.2258 72° East 444 511 37,000  Level Memphis Center
08:49AM 34.6606 -90.0819 74° East 444 511 37,000  Level Memphis Center
08:50AM 34.6875 -89.9328 78° East 444 511 37,000  Level Memphis Center
08:51AM 34.7097 -89.7811 80° East 449 517 37,000  Level Memphis Center
08:52AM 34.7675 -89.6367 64° Northeast 458 527 37,000 -360 Level Memphis Center
08:53AM 34.8375 -89.5044 57° Northeast 458 527 36,300 -900 Descending Memphis Center
08:54AM 34.9033 -89.3797 57° Northeast 453 521 35,300 -1,020 Descending Memphis Center
08:55AM 34.9689 -89.2472 59° Northeast 448 516 34,300 -960 Descending Memphis Center
08:56AM 35.0344 -89.1169 58° Northeast 454 522 33,400 -1,020 Descending Memphis Center
08:57AM 35.0997 -88.9839 59° Northeast 454 522 32,300 -1,020 Descending Memphis Center
08:58AM 35.1567 -88.8458 63° Northeast 449 517 31,400 -660 Descending Memphis Center
08:59AM 35.2006 -88.6825 72° East 459 528 31,000 -240 Descending Memphis Center
09:00AM 35.2378 -88.5292 73° East 459 528 31,000  Level Memphis Center
09:01AM 35.2794 -88.3833 71° East 457 526 31,000 -240 Level Memphis Center
09:02AM 35.3272 -88.2397 68° East 457 526 30,600 -720 Descending Memphis Center
09:03AM 35.4044 -88.1231 51° Northeast 437 503 29,600 -1,080 Descending Memphis Center
09:04AM 35.4817 -88.0114 50° Northeast 427 491 28,500 -1,200 Descending Memphis Center
09:05AM 35.5564 -87.8969 51° Northeast 421 484 27,200 -1,680 Descending Memphis Center
09:06AM 35.6233 -87.8031 49° Northeast 421 484 25,200 -2,280 Descending Memphis Center
09:07AM 35.6942 -87.6986 50° Northeast 402 463 22,700 -2,400 Descending Memphis Center
09:08AM 35.7628 -87.5967 50° Northeast 388 447 20,400 -2,280 Descending Memphis Center
09:09AM 35.8253 -87.4922 54° Northeast 382 440 18,200 -2,220 Descending Memphis Center
09:10AM 35.8661 -87.3753 67° East 364 419 16,000 -2,280 Descending Memphis Center
09:11AM 35.9072 -87.2636 66° East 359 413 13,700 -2,220 Descending Memphis Center
09:12AM 35.9442 -87.1572 67° East 347 399 11,600 -1,920 Descending Memphis Center
09:13AM 35.9872 -87.0503 64° Northeast 341 392 9,900 -1,800 Descending Memphis Center
09:14AM 36.0303 -86.9486 62° Northeast 320 368 8,100 -1,800 Descending Memphis Center
09:15AM 36.0694 -86.8519 63° Northeast 314 361 6,400 -1,320 Descending Memphis Center
09:16AM 36.1197 -86.7881 46° Northeast 267 307 5,500 -780 Descending Memphis Center
09:17AM 36.1858 -86.7647 16° North 246 283 4,900 -780 Descending Memphis Center
09:18AM 36.2456 -86.7414 17° North 233 268 4,000 -900 Descending Memphis Center
09:19AM 36.3053 -86.7181 17° North 222 255 3,200 -540 Descending Memphis Center
09:20AM 36.3417 -86.6831 38° Northeast 169 194 3,000 -120 Descending Memphis Center
09:21AM 36.3231 -86.6169 109° East 141 162 3,000  Level Memphis Center
09:22AM 36.2808 -86.5981 160° South 133 153 3,000 -420 Level Memphis Center
09:24AM 36.2000 -86.6333 199° South 157 181 1,800 -660 Descending Nashville TRACON
09:25AM 36.1667 -86.6500 202° Southwest 108 124 1,200 -600 Descending Nashville TRACON
09:27AM 36.1167 -86.6667 191° South  Level FlightAware Approximate
09:34AM 36.1245 -86.6782 191° South  Level Estimated
09:35AM 36.1245 -86.6782 191° South  Level Estimated
09:36AM 36.1245 -86.6782 191° South  Level Estimated
09:37AM 36.1245 -86.6782 191° South  Level Estimated
09:38AM 36.1245 -86.6782 191° South  Level Estimated
09:39AM 36.1245 -86.6782 191° South  Level Estimated
09:40AM 36.1245 -86.6782 191° South  Level Estimated
09:41AM 36.1245 -86.6782 191° South  Level Estimated
09:42AM 36.1245 -86.6782 191° South  Level Estimated